sensor_id;sensor_type;location;lat;lon;timestamp;pressure;altitude;pressure_sealevel;temperature;humidity
6435;BME280;3250;42.694;23.278;2023-04-01T00:00:55;93972.09;;;12.54;62.83
6435;BME280;3250;42.694;23.278;2023-04-01T00:03:22;93973.66;;;12.55;63.19
6435;BME280;3250;42.694;23.278;2023-04-01T00:05:48;93972.88;;;12.54;62.81
6435;BME280;3250;42.694;23.278;2023-04-01T00:08:15;93971.03;;;12.55;62.98
6435;BME280;3250;42.694;23.278;2023-04-01T00:10:41;93978.16;;;12.54;63.00
6435;BME280;3250;42.694;23.278;2023-04-01T00:13:06;93973.06;;;12.47;63.48
6435;BME280;3250;42.694;23.278;2023-04-01T00:15:32;93987.38;;;12.52;62.40
6435;BME280;3250;42.694;23.278;2023-04-01T00:17:58;93980.91;;;12.42;62.13
6435;BME280;3250;42.694;23.278;2023-04-01T00:20:24;93965.75;;;12.33;62.91
6435;BME280;3250;42.694;23.278;2023-04-01T00:22:50;93976.63;;;12.36;61.85
6435;BME280;3250;42.694;23.278;2023-04-01T00:25:16;93982.00;;;12.25;62.34
6435;BME280;3250;42.694;23.278;2023-04-01T00:27:42;93971.75;;;12.12;62.39
6435;BME280;3250;42.694;23.278;2023-04-01T00:30:08;93972.50;;;12.07;62.86
6435;BME280;3250;42.694;23.278;2023-04-01T00:32:34;93967.69;;;12.04;63.53
6435;BME280;3250;42.694;23.278;2023-04-01T00:35:00;93964.53;;;12.02;63.42
6435;BME280;3250;42.694;23.278;2023-04-01T00:37:27;93960.81;;;12.03;63.33
6435;BME280;3250;42.694;23.278;2023-04-01T00:39:53;93967.28;;;11.95;63.93
6435;BME280;3250;42.694;23.278;2023-04-01T00:42:18;93958.28;;;11.91;65.09
6435;BME280;3250;42.694;23.278;2023-04-01T00:44:48;93958.28;;;11.91;64.76
6435;BME280;3250;42.694;23.278;2023-04-01T00:47:15;93952.69;;;11.88;64.49
6435;BME280;3250;42.694;23.278;2023-04-01T00:49:45;93946.03;;;11.68;65.36
6435;BME280;3250;42.694;23.278;2023-04-01T00:52:13;93946.34;;;11.55;65.23
6435;BME280;3250;42.694;23.278;2023-04-01T00:54:41;93942.56;;;11.51;64.94
6435;BME280;3250;42.694;23.278;2023-04-01T00:57:25;93935.06;;;11.43;65.95
6435;BME280;3250;42.694;23.278;2023-04-01T00:59:54;93926.13;;;11.27;67.17
6435;BME280;3250;42.694;23.278;2023-04-01T01:02:20;93921.88;;;11.26;68.05
6435;BME280;3250;42.694;23.278;2023-04-01T01:04:46;93912.25;;;11.32;67.88
6435;BME280;3250;42.694;23.278;2023-04-01T01:15:20;93910.00;;;11.41;68.21
6435;BME280;3250;42.694;23.278;2023-04-01T01:24:02;93860.19;;;11.22;69.24
6435;BME280;3250;42.694;23.278;2023-04-01T01:26:53;93884.13;;;11.38;70.18
6435;BME280;3250;42.694;23.278;2023-04-01T01:37:35;93873.19;;;11.29;69.02
6435;BME280;3250;42.694;23.278;2023-04-01T01:40:05;93874.00;;;11.29;69.47
6435;BME280;3250;42.694;23.278;2023-04-01T01:42:33;93865.75;;;11.26;70.09
6435;BME280;3250;42.694;23.278;2023-04-01T01:45:01;93879.25;;;11.29;70.10
6435;BME280;3250;42.694;23.278;2023-04-01T01:47:28;93862.09;;;11.27;70.66
6435;BME280;3250;42.694;23.278;2023-04-01T01:49:55;93879.41;;;11.23;70.61
6435;BME280;3250;42.694;23.278;2023-04-01T01:52:22;93856.63;;;11.00;72.15
6435;BME280;3250;42.694;23.278;2023-04-01T01:54:53;93868.22;;;11.16;71.19
6435;BME280;3250;42.694;23.278;2023-04-01T01:57:28;93864.09;;;11.20;70.49
6435;BME280;3250;42.694;23.278;2023-04-01T02:00:09;93816.22;;;11.06;68.73
6435;BME280;3250;42.694;23.278;2023-04-01T02:02:42;93841.34;;;11.30;67.47
6435;BME280;3250;42.694;23.278;2023-04-01T02:05:11;93858.81;;;11.53;67.15
6435;BME280;3250;42.694;23.278;2023-04-01T02:07:43;93856.41;;;11.52;67.39
6435;BME280;3250;42.694;23.278;2023-04-01T02:10:12;93851.31;;;11.45;67.94
6435;BME280;3250;42.694;23.278;2023-04-01T02:12:38;93856.16;;;11.53;67.14
6435;BME280;3250;42.694;23.278;2023-04-01T02:15:12;93849.63;;;11.56;67.74
6435;BME280;3250;42.694;23.278;2023-04-01T02:17:42;93841.63;;;11.51;67.78
6435;BME280;3250;42.694;23.278;2023-04-01T02:20:13;93835.31;;;11.52;68.57
6435;BME280;3250;42.694;23.278;2023-04-01T02:22:48;93841.50;;;11.57;68.24
6435;BME280;3250;42.694;23.278;2023-04-01T02:25:18;93842.28;;;11.58;68.23
6435;BME280;3250;42.694;23.278;2023-04-01T02:27:46;93842.28;;;11.58;69.00
6435;BME280;3250;42.694;23.278;2023-04-01T02:30:14;93832.06;;;11.45;69.48
6435;BME280;3250;42.694;23.278;2023-04-01T02:32:40;93843.97;;;11.47;68.97
6435;BME280;3250;42.694;23.278;2023-04-01T02:35:09;93844.78;;;11.48;69.20
6435;BME280;3250;42.694;23.278;2023-04-01T02:37:36;93857.56;;;11.39;69.19
6435;BME280;3250;42.694;23.278;2023-04-01T02:40:06;93859.69;;;11.42;69.50
6435;BME280;3250;42.694;23.278;2023-04-01T02:42:33;93847.56;;;11.41;69.81
6435;BME280;3250;42.694;23.278;2023-04-01T02:44:59;93856.91;;;11.49;69.86
6435;BME280;3250;42.694;23.278;2023-04-01T02:47:24;93857.94;;;11.48;70.39
6435;BME280;3250;42.694;23.278;2023-04-01T02:49:50;93865.13;;;11.52;70.33
6435;BME280;3250;42.694;23.278;2023-04-01T02:52:15;93854.81;;;11.51;70.54
6435;BME280;3250;42.694;23.278;2023-04-01T02:54:41;93870.88;;;11.49;70.63
6435;BME280;3250;42.694;23.278;2023-04-01T02:57:06;93869.59;;;11.35;70.14
6435;BME280;3250;42.694;23.278;2023-04-01T02:59:32;93862.88;;;11.27;70.16
6435;BME280;3250;42.694;23.278;2023-04-01T03:01:57;93886.03;;;11.42;69.98
6435;BME280;3250;42.694;23.278;2023-04-01T03:04:26;93875.59;;;11.30;70.14
6435;BME280;3250;42.694;23.278;2023-04-01T03:06:51;93885.00;;;11.43;69.63
6435;BME280;3250;42.694;23.278;2023-04-01T03:09:17;93883.25;;;11.49;69.23
6435;BME280;3250;42.694;23.278;2023-04-01T03:11:42;93874.31;;;11.50;69.08
6435;BME280;3250;42.694;23.278;2023-04-01T03:14:07;93884.19;;;11.59;66.83
6435;BME280;3250;42.694;23.278;2023-04-01T03:16:33;93895.31;;;11.61;67.59
6435;BME280;3250;42.694;23.278;2023-04-01T03:18:59;93887.72;;;11.65;67.67
6435;BME280;3250;42.694;23.278;2023-04-01T03:21:27;93882.84;;;11.73;66.64
6435;BME280;3250;42.694;23.278;2023-04-01T03:23:52;93899.63;;;11.67;66.53
6435;BME280;3250;42.694;23.278;2023-04-01T03:26:18;93899.59;;;11.51;66.77
6435;BME280;3250;42.694;23.278;2023-04-01T03:28:43;93871.53;;;11.40;66.85
6435;BME280;3250;42.694;23.278;2023-04-01T03:31:10;93890.91;;;11.50;66.93
6435;BME280;3250;42.694;23.278;2023-04-01T03:33:36;93889.41;;;11.54;66.66
6435;BME280;3250;42.694;23.278;2023-04-01T03:36:02;93875.59;;;11.64;67.21
6435;BME280;3250;42.694;23.278;2023-04-01T03:38:28;93868.94;;;11.61;68.07
6435;BME280;3250;42.694;23.278;2023-04-01T03:40:53;93850.03;;;11.64;67.93
6435;BME280;3250;42.694;23.278;2023-04-01T03:43:19;93831.75;;;11.58;67.74
6435;BME280;3250;42.694;23.278;2023-04-01T03:45:47;93837.88;;;11.80;66.64
6435;BME280;3250;42.694;23.278;2023-04-01T03:48:13;93793.63;;;11.65;66.01
6435;BME280;3250;42.694;23.278;2023-04-01T03:50:39;93780.31;;;11.55;66.14
6435;BME280;3250;42.694;23.278;2023-04-01T03:53:05;93792.66;;;11.71;65.94
6435;BME280;3250;42.694;23.278;2023-04-01T03:55:31;93805.63;;;11.95;64.81
6435;BME280;3250;42.694;23.278;2023-04-01T03:57:56;93775.16;;;11.82;65.70
6435;BME280;3250;42.694;23.278;2023-04-01T04:00:21;93793.78;;;11.97;65.72
6435;BME280;3250;42.694;23.278;2023-04-01T04:02:47;93780.94;;;12.01;65.42
6435;BME280;3250;42.694;23.278;2023-04-01T04:05:12;93773.97;;;11.95;65.91
6435;BME280;3250;42.694;23.278;2023-04-01T04:07:38;93780.06;;;11.95;65.32
6435;BME280;3250;42.694;23.278;2023-04-01T04:10:04;93778.44;;;11.94;65.27
6435;BME280;3250;42.694;23.278;2023-04-01T04:12:30;93772.09;;;11.90;65.77
6435;BME280;3250;42.694;23.278;2023-04-01T04:14:55;93765.25;;;11.94;66.47
6435;BME280;3250;42.694;23.278;2023-04-01T04:17:20;93766.34;;;11.93;67.34
6435;BME280;3250;42.694;23.278;2023-04-01T04:19:46;93751.84;;;11.96;67.41
6435;BME280;3250;42.694;23.278;2023-04-01T04:22:11;93749.19;;;11.96;66.65
6435;BME280;3250;42.694;23.278;2023-04-01T04:24:37;93743.94;;;11.96;66.31
6435;BME280;3250;42.694;23.278;2023-04-01T04:27:03;93743.38;;;11.94;66.44
6435;BME280;3250;42.694;23.278;2023-04-01T04:29:29;93731.56;;;11.75;67.02
6435;BME280;3250;42.694;23.278;2023-04-01T04:31:54;93749.53;;;11.61;68.91
6435;BME280;3250;42.694;23.278;2023-04-01T04:34:20;93711.47;;;11.30;70.19
6435;BME280;3250;42.694;23.278;2023-04-01T04:36:47;93745.06;;;11.61;69.64
6435;BME280;3250;42.694;23.278;2023-04-01T04:39:13;93735.25;;;11.57;69.02
6435;BME280;3250;42.694;23.278;2023-04-01T04:41:39;93740.97;;;11.49;70.16
6435;BME280;3250;42.694;23.278;2023-04-01T04:44:05;93731.16;;;11.27;71.71
6435;BME280;3250;42.694;23.278;2023-04-01T04:46:30;93735.38;;;11.45;71.02
6435;BME280;3250;42.694;23.278;2023-04-01T04:48:56;93723.41;;;11.59;70.94
6435;BME280;3250;42.694;23.278;2023-04-01T04:51:21;93706.09;;;11.63;70.96
6435;BME280;3250;42.694;23.278;2023-04-01T04:53:47;93713.13;;;11.75;69.93
6435;BME280;3250;42.694;23.278;2023-04-01T04:56:17;93722.50;;;11.70;70.26
6435;BME280;3250;42.694;23.278;2023-04-01T04:58:43;93709.97;;;11.78;70.16
6435;BME280;3250;42.694;23.278;2023-04-01T05:01:09;93705.25;;;11.80;70.21
6435;BME280;3250;42.694;23.278;2023-04-01T05:03:39;93711.72;;;11.72;69.66
6435;BME280;3250;42.694;23.278;2023-04-01T05:06:05;93702.09;;;11.61;69.54
6435;BME280;3250;42.694;23.278;2023-04-01T05:08:31;93670.28;;;11.46;69.09
6435;BME280;3250;42.694;23.278;2023-04-01T05:10:58;93692.66;;;11.65;69.29
6435;BME280;3250;42.694;23.278;2023-04-01T05:13:24;93686.03;;;11.62;69.50
6435;BME280;3250;42.694;23.278;2023-04-01T05:15:49;93688.66;;;11.62;69.91
6435;BME280;3250;42.694;23.278;2023-04-01T05:18:15;93677.94;;;11.69;69.86
6435;BME280;3250;42.694;23.278;2023-04-01T05:20:49;93656.19;;;11.35;70.53
6435;BME280;3250;42.694;23.278;2023-04-01T05:23:16;93654.88;;;11.59;69.25
6435;BME280;3250;42.694;23.278;2023-04-01T05:25:41;93634.00;;;11.53;67.65
6435;BME280;3250;42.694;23.278;2023-04-01T05:28:07;93650.19;;;11.61;68.61
6435;BME280;3250;42.694;23.278;2023-04-01T05:30:33;93674.91;;;12.31;67.73
6435;BME280;3250;42.694;23.278;2023-04-01T05:32:58;93679.41;;;12.99;64.02
6435;BME280;3250;42.694;23.278;2023-04-01T05:35:23;93689.09;;;13.73;60.92
6435;BME280;3250;42.694;23.278;2023-04-01T05:37:49;93672.78;;;14.11;59.76
6435;BME280;3250;42.694;23.278;2023-04-01T05:40:14;93670.88;;;15.74;57.32
6435;BME280;3250;42.694;23.278;2023-04-01T05:42:40;93674.75;;;17.90;48.61
6435;BME280;3250;42.694;23.278;2023-04-01T05:45:06;93666.59;;;20.14;43.51
6435;BME280;3250;42.694;23.278;2023-04-01T05:47:31;93673.06;;;22.39;39.25
6435;BME280;3250;42.694;23.278;2023-04-01T05:49:57;93684.16;;;24.26;33.38
6435;BME280;3250;42.694;23.278;2023-04-01T05:52:22;93674.25;;;25.75;30.17
6435;BME280;3250;42.694;23.278;2023-04-01T05:54:47;93675.06;;;26.61;28.96
6435;BME280;3250;42.694;23.278;2023-04-01T05:57:13;93676.72;;;27.58;27.08
6435;BME280;3250;42.694;23.278;2023-04-01T05:59:38;93668.56;;;28.33;25.66
6435;BME280;3250;42.694;23.278;2023-04-01T06:02:04;93679.63;;;28.94;24.30
6435;BME280;3250;42.694;23.278;2023-04-01T06:04:35;93675.34;;;28.93;24.41
6435;BME280;3250;42.694;23.278;2023-04-01T06:07:10;93683.97;;;28.99;23.54
6435;BME280;3250;42.694;23.278;2023-04-01T06:09:35;93676.47;;;28.57;23.75
6435;BME280;3250;42.694;23.278;2023-04-01T06:25:29;93658.16;;;20.07;35.40
6435;BME280;3250;42.694;23.278;2023-04-01T06:30:43;93641.81;;;18.42;38.92
6435;BME280;3250;42.694;23.278;2023-04-01T06:33:24;93650.16;;;17.98;40.23
6435;BME280;3250;42.694;23.278;2023-04-01T06:46:53;93612.84;;;16.06;44.63
6435;BME280;3250;42.694;23.278;2023-04-01T06:57:50;93605.00;;;15.06;48.09
6435;BME280;3250;42.694;23.278;2023-04-01T07:00:30;93602.38;;;14.96;48.62
6435;BME280;3250;42.694;23.278;2023-04-01T07:03:07;93601.13;;;14.79;49.28
6435;BME280;3250;42.694;23.278;2023-04-01T07:05:39;93588.69;;;14.59;50.24
6435;BME280;3250;42.694;23.278;2023-04-01T07:08:09;93604.00;;;14.62;50.42
6435;BME280;3250;42.694;23.278;2023-04-01T07:10:41;93596.63;;;14.59;51.52
6435;BME280;3250;42.694;23.278;2023-04-01T07:13:22;93601.13;;;14.58;51.28
6435;BME280;3250;42.694;23.278;2023-04-01T07:16:17;93603.50;;;14.50;52.06
6435;BME280;3250;42.694;23.278;2023-04-01T07:18:45;93598.72;;;14.47;51.84
6435;BME280;3250;42.694;23.278;2023-04-01T07:21:25;93597.69;;;14.58;52.03
6435;BME280;3250;42.694;23.278;2023-04-01T07:23:52;93573.59;;;14.59;52.61
6435;BME280;3250;42.694;23.278;2023-04-01T07:26:22;93586.25;;;14.72;53.31
6435;BME280;3250;42.694;23.278;2023-04-01T07:28:48;93611.44;;;14.55;54.61
6435;BME280;3250;42.694;23.278;2023-04-01T07:31:49;93622.81;;;14.25;55.86
6435;BME280;3250;42.694;23.278;2023-04-01T07:34:58;93579.41;;;14.41;54.78
6435;BME280;3250;42.694;23.278;2023-04-01T07:37:34;93595.00;;;14.38;54.17
6435;BME280;3250;42.694;23.278;2023-04-01T07:46:07;93597.41;;;14.39;55.57
6435;BME280;3250;42.694;23.278;2023-04-01T07:48:50;93604.56;;;14.44;54.42
6435;BME280;3250;42.694;23.278;2023-04-01T08:13:33;93576.16;;;14.90;54.78
6435;BME280;3250;42.694;23.278;2023-04-01T08:16:18;93563.13;;;15.08;53.38
6435;BME280;3250;42.694;23.278;2023-04-01T08:19:00;93555.91;;;15.29;53.71
6435;BME280;3250;42.694;23.278;2023-04-01T08:21:42;93523.25;;;15.34;52.73
6435;BME280;3250;42.694;23.278;2023-04-01T08:25:04;93556.56;;;15.60;53.82
6435;BME280;3250;42.694;23.278;2023-04-01T08:27:12;93516.19;;;15.68;52.75
6435;BME280;3250;42.694;23.278;2023-04-01T08:29:46;93524.00;;;15.94;52.52
6435;BME280;3250;42.694;23.278;2023-04-01T08:32:30;93526.66;;;16.28;53.08
6435;BME280;3250;42.694;23.278;2023-04-01T08:35:08;93515.41;;;16.70;53.88
6435;BME280;3250;42.694;23.278;2023-04-01T08:37:39;93512.50;;;17.56;49.63
6435;BME280;3250;42.694;23.278;2023-04-01T08:40:49;93495.00;;;18.25;47.84
6435;BME280;3250;42.694;23.278;2023-04-01T08:59:45;93489.47;;;21.37;35.63
6435;BME280;3250;42.694;23.278;2023-04-01T09:07:52;93484.19;;;20.75;36.04
6435;BME280;3250;42.694;23.278;2023-04-01T09:13:37;93465.81;;;20.29;37.38
6435;BME280;3250;42.694;23.278;2023-04-01T09:16:12;93462.09;;;20.16;37.40
6435;BME280;3250;42.694;23.278;2023-04-01T09:27:19;93461.84;;;19.46;38.18
6435;BME280;3250;42.694;23.278;2023-04-01T09:35:47;93436.16;;;19.22;40.54
6435;BME280;3250;42.694;23.278;2023-04-01T09:41:17;93432.28;;;19.29;40.43
6435;BME280;3250;42.694;23.278;2023-04-01T09:44:18;93432.00;;;19.30;40.10
6435;BME280;3250;42.694;23.278;2023-04-01T09:58:24;93386.59;;;20.64;35.90
6435;BME280;3250;42.694;23.278;2023-04-01T10:17:35;93360.78;;;19.53;34.20
6435;BME280;3250;42.694;23.278;2023-04-01T10:23:20;93374.91;;;18.68;37.17
6435;BME280;3250;42.694;23.278;2023-04-01T10:36:48;93353.53;;;18.54;37.81
6435;BME280;3250;42.694;23.278;2023-04-01T10:39:35;93354.91;;;18.52;38.43
6435;BME280;3250;42.694;23.278;2023-04-01T10:45:17;93345.06;;;18.25;39.14
6435;BME280;3250;42.694;23.278;2023-04-01T10:53:38;93331.75;;;17.79;41.80
6435;BME280;3250;42.694;23.278;2023-04-01T10:56:52;93314.72;;;17.80;41.65
6435;BME280;3250;42.694;23.278;2023-04-01T11:13:43;93319.81;;;17.62;42.28
6435;BME280;3250;42.694;23.278;2023-04-01T11:19:00;93323.44;;;17.66;41.98
6435;BME280;3250;42.694;23.278;2023-04-01T11:44:19;93493.19;;;16.55;57.38
6435;BME280;3250;42.694;23.278;2023-04-01T11:52:24;93550.16;;;15.07;68.30
6435;BME280;3250;42.694;23.278;2023-04-01T12:09:08;93559.28;;;14.25;76.22
6435;BME280;3250;42.694;23.278;2023-04-01T12:20:02;93537.03;;;14.46;79.02
6435;BME280;3250;42.694;23.278;2023-04-01T12:28:54;93545.44;;;14.94;79.29
6435;BME280;3250;42.694;23.278;2023-04-01T12:37:12;93569.75;;;15.06;79.46
6435;BME280;3250;42.694;23.278;2023-04-01T12:55:54;93533.31;;;14.32;79.32
6435;BME280;3250;42.694;23.278;2023-04-01T13:01:34;93512.69;;;14.09;79.75
6435;BME280;3250;42.694;23.278;2023-04-01T13:09:40;93496.25;;;13.46;78.43
6435;BME280;3250;42.694;23.278;2023-04-01T13:20:36;93482.78;;;14.18;80.25
6435;BME280;3250;42.694;23.278;2023-04-01T13:23:11;93469.78;;;14.37;80.04
6435;BME280;3250;42.694;23.278;2023-04-01T13:25:48;93466.03;;;14.63;78.32
6435;BME280;3250;42.694;23.278;2023-04-01T13:42:00;93413.16;;;15.41;74.63
6435;BME280;3250;42.694;23.278;2023-04-01T14:08:54;93391.38;;;15.55;59.42
6435;BME280;3250;42.694;23.278;2023-04-01T14:22:43;93379.88;;;16.46;57.98
6435;BME280;3250;42.694;23.278;2023-04-01T14:25:33;93372.88;;;16.31;56.57
6435;BME280;3250;42.694;23.278;2023-04-01T14:28:22;93368.56;;;16.11;56.59
6435;BME280;3250;42.694;23.278;2023-04-01T14:33:57;93344.72;;;16.06;56.34
6435;BME280;3250;42.694;23.278;2023-04-01T14:45:16;93353.31;;;16.46;54.47
6435;BME280;3250;42.694;23.278;2023-04-01T14:50:22;93351.00;;;16.63;54.63
6435;BME280;3250;42.694;23.278;2023-04-01T14:55:28;93342.69;;;16.46;50.61
6435;BME280;3250;42.694;23.278;2023-04-01T14:58:14;93344.94;;;16.10;51.67
6435;BME280;3250;42.694;23.278;2023-04-01T15:00:41;93344.94;;;16.10;53.71
6435;BME280;3250;42.694;23.278;2023-04-01T15:03:33;93361.56;;;16.20;54.34
6435;BME280;3250;42.694;23.278;2023-04-01T15:14:31;93368.22;;;16.18;54.02
6435;BME280;3250;42.694;23.278;2023-04-01T15:25:36;93375.75;;;15.82;54.54
6435;BME280;3250;42.694;23.278;2023-04-01T15:44:52;93498.97;;;15.66;56.15
6435;BME280;3250;42.694;23.278;2023-04-01T15:53:15;93562.97;;;13.83;63.67
6435;BME280;3250;42.694;23.278;2023-04-01T16:14:57;93642.88;;;11.25;80.47
6435;BME280;3250;42.694;23.278;2023-04-01T16:18:00;93644.84;;;11.13;82.02
6435;BME280;3250;42.694;23.278;2023-04-01T16:20:55;93659.09;;;10.95;82.25
6435;BME280;3250;42.694;23.278;2023-04-01T16:26:23;93661.38;;;11.08;82.97
6435;BME280;3250;42.694;23.278;2023-04-01T16:32:11;93666.78;;;11.18;81.55
6435;BME280;3250;42.694;23.278;2023-04-01T16:37:51;93688.41;;;11.20;81.11
6435;BME280;3250;42.694;23.278;2023-04-01T16:40:52;93696.25;;;11.15;80.76
6435;BME280;3250;42.694;23.278;2023-04-01T16:49:17;93695.94;;;11.12;78.39
6435;BME280;3250;42.694;23.278;2023-04-01T17:08:35;93727.72;;;10.88;78.82
6435;BME280;3250;42.694;23.278;2023-04-01T17:11:38;93738.78;;;10.90;78.30
6435;BME280;3250;42.694;23.278;2023-04-01T17:14:27;93760.81;;;10.84;77.64
6435;BME280;3250;42.694;23.278;2023-04-01T17:40:50;93747.22;;;10.42;77.88
6435;BME280;3250;42.694;23.278;2023-04-01T17:46:02;93725.69;;;10.29;78.59
6435;BME280;3250;42.694;23.278;2023-04-01T17:51:17;93755.88;;;10.26;78.28
6435;BME280;3250;42.694;23.278;2023-04-01T17:53:55;93765.44;;;10.32;79.19
6435;BME280;3250;42.694;23.278;2023-04-01T17:56:44;93773.75;;;10.41;78.19
6435;BME280;3250;42.694;23.278;2023-04-01T17:59:36;93767.63;;;10.35;78.80
6435;BME280;3250;42.694;23.278;2023-04-01T18:07:38;93792.28;;;10.17;78.26
6435;BME280;3250;42.694;23.278;2023-04-01T18:15:53;93813.69;;;9.86;80.14
6435;BME280;3250;42.694;23.278;2023-04-01T18:18:37;93815.44;;;9.80;80.26
6435;BME280;3250;42.694;23.278;2023-04-01T18:21:24;93829.94;;;9.83;80.15
6435;BME280;3250;42.694;23.278;2023-04-01T18:24:06;93828.69;;;9.62;80.74
6435;BME280;3250;42.694;23.278;2023-04-01T18:26:38;93826.19;;;9.56;81.67
6435;BME280;3250;42.694;23.278;2023-04-01T18:29:28;93832.56;;;9.71;80.54
6435;BME280;3250;42.694;23.278;2023-04-01T18:35:00;93820.44;;;9.94;79.59
6435;BME280;3250;42.694;23.278;2023-04-01T18:37:34;93814.94;;;9.95;79.49
6435;BME280;3250;42.694;23.278;2023-04-01T18:40:36;93819.06;;;10.03;79.44
6435;BME280;3250;42.694;23.278;2023-04-01T18:43:22;93790.97;;;9.92;78.89
6435;BME280;3250;42.694;23.278;2023-04-01T18:46:00;93823.34;;;10.20;78.61
6435;BME280;3250;42.694;23.278;2023-04-01T18:48:52;93822.81;;;10.18;78.77
6435;BME280;3250;42.694;23.278;2023-04-01T18:51:38;93799.78;;;10.14;78.20
6435;BME280;3250;42.694;23.278;2023-04-01T18:54:16;93819.22;;;10.25;78.00
6435;BME280;3250;42.694;23.278;2023-04-01T18:56:47;93804.25;;;10.25;77.76
6435;BME280;3250;42.694;23.278;2023-04-01T18:59:27;93827.16;;;10.41;76.30
6435;BME280;3250;42.694;23.278;2023-04-01T19:02:23;93809.50;;;10.13;76.77
6435;BME280;3250;42.694;23.278;2023-04-01T19:05:12;93844.91;;;10.46;76.34
6435;BME280;3250;42.694;23.278;2023-04-01T19:07:52;93844.56;;;10.42;75.58
6435;BME280;3250;42.694;23.278;2023-04-01T19:10:40;93855.75;;;10.49;76.01
6435;BME280;3250;42.694;23.278;2023-04-01T19:13:28;93841.94;;;10.42;76.23
6435;BME280;3250;42.694;23.278;2023-04-01T19:19:09;93864.84;;;10.58;75.61
6435;BME280;3250;42.694;23.278;2023-04-01T19:21:55;93871.72;;;10.59;76.28
6435;BME280;3250;42.694;23.278;2023-04-01T19:27:37;93874.41;;;10.76;74.79
6435;BME280;3250;42.694;23.278;2023-04-01T19:33:09;93877.91;;;10.82;72.20
6435;BME280;3250;42.694;23.278;2023-04-01T19:38:37;93865.31;;;10.55;71.75
6435;BME280;3250;42.694;23.278;2023-04-01T19:44:07;93906.44;;;10.73;71.04
6435;BME280;3250;42.694;23.278;2023-04-01T19:46:48;93878.31;;;10.34;71.19
6435;BME280;3250;42.694;23.278;2023-04-01T19:52:41;93878.09;;;10.35;72.18
6435;BME280;3250;42.694;23.278;2023-04-01T20:05:33;93895.31;;;10.54;71.49
6435;BME280;3250;42.694;23.278;2023-04-01T20:19:04;93884.63;;;10.33;72.44
6435;BME280;3250;42.694;23.278;2023-04-01T20:21:34;93882.69;;;10.28;72.38
6435;BME280;3250;42.694;23.278;2023-04-01T20:26:41;93879.72;;;10.25;71.03
6435;BME280;3250;42.694;23.278;2023-04-01T20:31:43;93875.84;;;10.27;68.79
6435;BME280;3250;42.694;23.278;2023-04-01T20:37:21;93904.72;;;10.39;67.93
6435;BME280;3250;42.694;23.278;2023-04-01T20:51:10;93910.69;;;10.34;66.81
6435;BME280;3250;42.694;23.278;2023-04-01T20:54:19;93920.06;;;10.42;66.28
6435;BME280;3250;42.694;23.278;2023-04-01T20:57:11;93895.50;;;10.25;66.14
6435;BME280;3250;42.694;23.278;2023-04-01T21:03:00;93898.13;;;10.25;67.73
6435;BME280;3250;42.694;23.278;2023-04-01T21:17:17;93936.56;;;10.26;68.17
6435;BME280;3250;42.694;23.278;2023-04-01T21:25:26;93939.63;;;10.34;68.69
6435;BME280;3250;42.694;23.278;2023-04-01T21:30:32;93944.66;;;10.36;68.02
6435;BME280;3250;42.694;23.278;2023-04-01T21:36:08;93924.88;;;10.33;65.52
6435;BME280;3250;42.694;23.278;2023-04-01T21:47:19;93939.84;;;10.33;65.97
6435;BME280;3250;42.694;23.278;2023-04-01T21:52:50;93946.72;;;9.87;68.31
6435;BME280;3250;42.694;23.278;2023-04-01T22:00:41;93930.75;;;9.77;68.46
6435;BME280;3250;42.694;23.278;2023-04-01T22:14:01;93933.91;;;9.79;69.21
6435;BME280;3250;42.694;23.278;2023-04-01T22:17:13;93930.47;;;9.78;69.04
6435;BME280;3250;42.694;23.278;2023-04-01T22:32:48;93897.13;;;9.56;67.64
6435;BME280;3250;42.694;23.278;2023-04-01T22:43:41;93927.63;;;9.57;67.24
6435;BME280;3250;42.694;23.278;2023-04-01T22:46:23;93945.00;;;9.58;67.72
6435;BME280;3250;42.694;23.278;2023-04-01T22:49:23;93944.66;;;9.66;67.05
6435;BME280;3250;42.694;23.278;2023-04-01T22:52:02;93946.47;;;9.54;66.73
6435;BME280;3250;42.694;23.278;2023-04-01T22:54:40;93935.03;;;9.48;67.25
6435;BME280;3250;42.694;23.278;2023-04-01T22:57:15;93959.84;;;9.64;66.54
6435;BME280;3250;42.694;23.278;2023-04-01T23:02:31;93963.63;;;9.68;66.10
6435;BME280;3250;42.694;23.278;2023-04-01T23:05:00;93968.75;;;9.51;67.43
6435;BME280;3250;42.694;23.278;2023-04-01T23:10:53;93960.88;;;9.63;67.16
6435;BME280;3250;42.694;23.278;2023-04-01T23:14:15;93960.75;;;9.69;66.72
6435;BME280;3250;42.694;23.278;2023-04-01T23:19:32;93969.91;;;9.67;65.97
6435;BME280;3250;42.694;23.278;2023-04-01T23:22:07;93963.63;;;9.68;66.04
6435;BME280;3250;42.694;23.278;2023-04-01T23:24:51;93955.84;;;9.73;66.26
6435;BME280;3250;42.694;23.278;2023-04-01T23:27:26;93936.09;;;9.59;65.94
6435;BME280;3250;42.694;23.278;2023-04-01T23:29:52;93962.47;;;9.64;67.06
6435;BME280;3250;42.694;23.278;2023-04-01T23:32:19;93968.19;;;9.72;66.12
6435;BME280;3250;42.694;23.278;2023-04-01T23:34:52;93949.56;;;9.62;66.10
6435;BME280;3250;42.694;23.278;2023-04-01T23:37:20;93971.97;;;9.76;65.89
6435;BME280;3250;42.694;23.278;2023-04-01T23:39:58;93966.94;;;9.75;65.79
6435;BME280;3250;42.694;23.278;2023-04-01T23:45:05;93961.13;;;9.73;64.73
6435;BME280;3250;42.694;23.278;2023-04-01T23:47:38;93967.84;;;9.80;64.75
6435;BME280;3250;42.694;23.278;2023-04-01T23:50:14;93963.63;;;9.79;64.77
6435;BME280;3250;42.694;23.278;2023-04-01T23:52:48;93961.78;;;9.80;63.68
6435;BME280;3250;42.694;23.278;2023-04-01T23:55:26;93961.47;;;9.76;63.64
